sensor_id;sensor_type;location;lat;lon;timestamp;temperature;humidity
15359;DHT22;7779;49.596;11.070;2023-06-22T00:02:17;20.40;68.80
15359;DHT22;7779;49.596;11.070;2023-06-22T00:04:43;20.40;68.80
15359;DHT22;7779;49.596;11.070;2023-06-22T00:07:09;20.40;68.90
15359;DHT22;7779;49.596;11.070;2023-06-22T00:09:35;20.40;69.00
15359;DHT22;7779;49.596;11.070;2023-06-22T00:12:02;20.40;69.00
15359;DHT22;7779;49.596;11.070;2023-06-22T00:14:28;20.30;68.90
15359;DHT22;7779;49.596;11.070;2023-06-22T00:16:54;20.30;68.90
15359;DHT22;7779;49.596;11.070;2023-06-22T00:19:23;20.30;68.90
15359;DHT22;7779;49.596;11.070;2023-06-22T00:21:49;20.30;68.90
15359;DHT22;7779;49.596;11.070;2023-06-22T00:24:19;20.30;69.10
15359;DHT22;7779;49.596;11.070;2023-06-22T00:26:45;20.20;69.00
15359;DHT22;7779;49.596;11.070;2023-06-22T00:29:12;20.20;69.20
15359;DHT22;7779;49.596;11.070;2023-06-22T00:31:38;20.20;69.30
15359;DHT22;7779;49.596;11.070;2023-06-22T00:34:03;20.20;69.40
15359;DHT22;7779;49.596;11.070;2023-06-22T00:36:33;20.20;69.50
15359;DHT22;7779;49.596;11.070;2023-06-22T00:38:58;20.20;69.60
15359;DHT22;7779;49.596;11.070;2023-06-22T00:41:24;20.10;69.60
15359;DHT22;7779;49.596;11.070;2023-06-22T00:43:54;20.10;69.60
15359;DHT22;7779;49.596;11.070;2023-06-22T00:46:21;20.10;69.60
15359;DHT22;7779;49.596;11.070;2023-06-22T00:48:48;20.10;69.60
15359;DHT22;7779;49.596;11.070;2023-06-22T00:51:15;20.00;69.60
15359;DHT22;7779;49.596;11.070;2023-06-22T00:53:41;20.10;69.70
15359;DHT22;7779;49.596;11.070;2023-06-22T00:56:10;20.00;69.60
15359;DHT22;7779;49.596;11.070;2023-06-22T00:58:38;20.00;69.70
15359;DHT22;7779;49.596;11.070;2023-06-22T01:01:07;20.00;70.40
15359;DHT22;7779;49.596;11.070;2023-06-22T01:03:33;19.90;69.70
15359;DHT22;7779;49.596;11.070;2023-06-22T01:06:08;19.90;69.80
15359;DHT22;7779;49.596;11.070;2023-06-22T01:08:57;19.90;70.60
15359;DHT22;7779;49.596;11.070;2023-06-22T01:11:35;19.90;70.60
15359;DHT22;7779;49.596;11.070;2023-06-22T01:14:14;19.80;70.50
15359;DHT22;7779;49.596;11.070;2023-06-22T01:16:45;19.80;70.80
15359;DHT22;7779;49.596;11.070;2023-06-22T01:22:10;19.80;71.50
15359;DHT22;7779;49.596;11.070;2023-06-22T01:28:23;19.80;72.10
15359;DHT22;7779;49.596;11.070;2023-06-22T01:30:59;19.70;71.30
15359;DHT22;7779;49.596;11.070;2023-06-22T01:33:33;19.70;70.20
15359;DHT22;7779;49.596;11.070;2023-06-22T01:36:02;19.70;70.50
15359;DHT22;7779;49.596;11.070;2023-06-22T01:38:29;19.60;70.30
15359;DHT22;7779;49.596;11.070;2023-06-22T01:40:57;19.60;70.50
15359;DHT22;7779;49.596;11.070;2023-06-22T01:43:26;19.50;70.50
15359;DHT22;7779;49.596;11.070;2023-06-22T01:45:55;19.50;70.60
15359;DHT22;7779;49.596;11.070;2023-06-22T01:48:23;19.50;70.70
15359;DHT22;7779;49.596;11.070;2023-06-22T01:50:49;19.50;70.80
15359;DHT22;7779;49.596;11.070;2023-06-22T01:53:16;19.40;70.80
15359;DHT22;7779;49.596;11.070;2023-06-22T01:55:42;19.40;70.90
15359;DHT22;7779;49.596;11.070;2023-06-22T01:58:07;19.40;71.10
15359;DHT22;7779;49.596;11.070;2023-06-22T02:00:37;19.40;72.20
15359;DHT22;7779;49.596;11.070;2023-06-22T02:03:14;19.40;71.80
15359;DHT22;7779;49.596;11.070;2023-06-22T02:05:51;19.40;72.50
15359;DHT22;7779;49.596;11.070;2023-06-22T02:08:28;19.30;72.00
15359;DHT22;7779;49.596;11.070;2023-06-22T02:10:59;19.30;72.70
15359;DHT22;7779;49.596;11.070;2023-06-22T02:13:27;19.30;71.60
15359;DHT22;7779;49.596;11.070;2023-06-22T02:15:53;19.30;71.50
15359;DHT22;7779;49.596;11.070;2023-06-22T02:18:19;19.30;71.50
15359;DHT22;7779;49.596;11.070;2023-06-22T02:20:46;19.30;71.60
15359;DHT22;7779;49.596;11.070;2023-06-22T02:23:11;19.30;71.60
15359;DHT22;7779;49.596;11.070;2023-06-22T02:25:37;19.20;71.60
15359;DHT22;7779;49.596;11.070;2023-06-22T02:28:04;19.20;71.60
15359;DHT22;7779;49.596;11.070;2023-06-22T02:30:30;19.20;71.50
15359;DHT22;7779;49.596;11.070;2023-06-22T02:32:56;19.20;71.50
15359;DHT22;7779;49.596;11.070;2023-06-22T02:35:29;19.20;71.50
15359;DHT22;7779;49.596;11.070;2023-06-22T02:37:58;19.20;71.60
15359;DHT22;7779;49.596;11.070;2023-06-22T02:40:25;19.10;72.00
15359;DHT22;7779;49.596;11.070;2023-06-22T02:42:51;19.10;71.90
15359;DHT22;7779;49.596;11.070;2023-06-22T02:45:16;19.10;72.10
15359;DHT22;7779;49.596;11.070;2023-06-22T02:47:42;19.10;72.40
15359;DHT22;7779;49.596;11.070;2023-06-22T02:50:09;19.10;72.60
15359;DHT22;7779;49.596;11.070;2023-06-22T02:52:35;19.10;72.80
15359;DHT22;7779;49.596;11.070;2023-06-22T02:55:02;19.10;73.00
15359;DHT22;7779;49.596;11.070;2023-06-22T02:57:28;19.10;73.20
15359;DHT22;7779;49.596;11.070;2023-06-22T02:59:55;19.20;73.50
15359;DHT22;7779;49.596;11.070;2023-06-22T03:02:21;19.20;73.70
15359;DHT22;7779;49.596;11.070;2023-06-22T03:04:47;19.20;74.00
15359;DHT22;7779;49.596;11.070;2023-06-22T03:07:15;19.30;74.00
15359;DHT22;7779;49.596;11.070;2023-06-22T03:09:42;19.30;74.10
15359;DHT22;7779;49.596;11.070;2023-06-22T03:12:08;19.30;74.10
15359;DHT22;7779;49.596;11.070;2023-06-22T03:14:52;19.40;74.20
15359;DHT22;7779;49.596;11.070;2023-06-22T03:17:18;19.40;74.10
15359;DHT22;7779;49.596;11.070;2023-06-22T03:19:44;19.50;74.20
15359;DHT22;7779;49.596;11.070;2023-06-22T03:22:10;19.50;74.10
15359;DHT22;7779;49.596;11.070;2023-06-22T03:24:35;19.50;74.10
15359;DHT22;7779;49.596;11.070;2023-06-22T03:27:02;19.50;74.10
15359;DHT22;7779;49.596;11.070;2023-06-22T03:29:31;19.50;74.20
15359;DHT22;7779;49.596;11.070;2023-06-22T03:31:56;19.60;75.00
15359;DHT22;7779;49.596;11.070;2023-06-22T03:34:22;19.60;74.40
15359;DHT22;7779;49.596;11.070;2023-06-22T03:36:51;19.60;74.40
15359;DHT22;7779;49.596;11.070;2023-06-22T03:39:17;19.60;74.40
15359;DHT22;7779;49.596;11.070;2023-06-22T03:41:43;19.70;74.50
15359;DHT22;7779;49.596;11.070;2023-06-22T03:44:09;19.70;74.50
15359;DHT22;7779;49.596;11.070;2023-06-22T03:46:37;19.70;74.60
15359;DHT22;7779;49.596;11.070;2023-06-22T03:49:03;19.80;74.70
15359;DHT22;7779;49.596;11.070;2023-06-22T03:51:31;19.80;74.70
15359;DHT22;7779;49.596;11.070;2023-06-22T03:53:57;19.90;74.90
15359;DHT22;7779;49.596;11.070;2023-06-22T03:56:23;19.90;74.70
15359;DHT22;7779;49.596;11.070;2023-06-22T03:58:49;19.90;75.30
15359;DHT22;7779;49.596;11.070;2023-06-22T04:01:14;19.90;75.20
15359;DHT22;7779;49.596;11.070;2023-06-22T04:03:42;20.00;74.60
15359;DHT22;7779;49.596;11.070;2023-06-22T04:06:08;20.00;74.50
15359;DHT22;7779;49.596;11.070;2023-06-22T04:08:34;20.10;74.50
15359;DHT22;7779;49.596;11.070;2023-06-22T04:11:00;20.10;74.50
15359;DHT22;7779;49.596;11.070;2023-06-22T04:13:25;20.10;74.50
15359;DHT22;7779;49.596;11.070;2023-06-22T04:15:51;20.20;74.50
15359;DHT22;7779;49.596;11.070;2023-06-22T04:18:17;20.20;74.40
15359;DHT22;7779;49.596;11.070;2023-06-22T04:20:42;20.30;74.40
15359;DHT22;7779;49.596;11.070;2023-06-22T04:23:10;20.30;74.40
15359;DHT22;7779;49.596;11.070;2023-06-22T04:25:36;20.40;74.60
15359;DHT22;7779;49.596;11.070;2023-06-22T04:28:01;20.40;74.60
15359;DHT22;7779;49.596;11.070;2023-06-22T04:30:28;20.50;74.70
15359;DHT22;7779;49.596;11.070;2023-06-22T04:32:57;20.60;74.80
15359;DHT22;7779;49.596;11.070;2023-06-22T04:35:23;20.70;75.00
15359;DHT22;7779;49.596;11.070;2023-06-22T04:37:50;20.80;75.40
15359;DHT22;7779;49.596;11.070;2023-06-22T04:40:22;21.00;75.20
15359;DHT22;7779;49.596;11.070;2023-06-22T04:42:48;21.00;75.80
15359;DHT22;7779;49.596;11.070;2023-06-22T04:45:17;21.20;75.80
15359;DHT22;7779;49.596;11.070;2023-06-22T04:47:43;21.40;75.50
15359;DHT22;7779;49.596;11.070;2023-06-22T04:50:13;21.50;75.10
15359;DHT22;7779;49.596;11.070;2023-06-22T04:52:40;21.70;74.70
15359;DHT22;7779;49.596;11.070;2023-06-22T04:55:06;21.80;74.40
15359;DHT22;7779;49.596;11.070;2023-06-22T04:57:32;21.90;74.00
15359;DHT22;7779;49.596;11.070;2023-06-22T04:59:59;22.00;73.70
15359;DHT22;7779;49.596;11.070;2023-06-22T05:02:40;22.10;73.30
15359;DHT22;7779;49.596;11.070;2023-06-22T05:05:07;22.30;73.10
15359;DHT22;7779;49.596;11.070;2023-06-22T05:07:36;22.30;72.90
15359;DHT22;7779;49.596;11.070;2023-06-22T05:10:03;22.40;72.80
15359;DHT22;7779;49.596;11.070;2023-06-22T05:12:30;22.50;72.80
15359;DHT22;7779;49.596;11.070;2023-06-22T05:14:57;22.70;72.80
15359;DHT22;7779;49.596;11.070;2023-06-22T05:17:23;22.80;72.80
15359;DHT22;7779;49.596;11.070;2023-06-22T05:19:48;22.90;72.90
15359;DHT22;7779;49.596;11.070;2023-06-22T05:22:15;23.00;73.00
15359;DHT22;7779;49.596;11.070;2023-06-22T05:24:42;23.20;73.20
15359;DHT22;7779;49.596;11.070;2023-06-22T05:27:09;23.40;73.40
15359;DHT22;7779;49.596;11.070;2023-06-22T05:29:37;23.60;73.40
15359;DHT22;7779;49.596;11.070;2023-06-22T05:32:03;23.80;71.60
15359;DHT22;7779;49.596;11.070;2023-06-22T05:34:29;24.00;72.90
15359;DHT22;7779;49.596;11.070;2023-06-22T05:36:55;24.10;72.40
15359;DHT22;7779;49.596;11.070;2023-06-22T05:39:21;24.30;72.00
15359;DHT22;7779;49.596;11.070;2023-06-22T05:41:46;24.50;71.60
15359;DHT22;7779;49.596;11.070;2023-06-22T05:44:12;24.60;71.10
15359;DHT22;7779;49.596;11.070;2023-06-22T05:46:42;24.80;71.00
15359;DHT22;7779;49.596;11.070;2023-06-22T05:49:11;25.00;70.50
15359;DHT22;7779;49.596;11.070;2023-06-22T05:51:37;25.10;70.30
15359;DHT22;7779;49.596;11.070;2023-06-22T05:54:02;25.20;69.80
15359;DHT22;7779;49.596;11.070;2023-06-22T05:56:28;25.40;69.60
15359;DHT22;7779;49.596;11.070;2023-06-22T05:58:54;25.50;69.40
15359;DHT22;7779;49.596;11.070;2023-06-22T06:01:20;25.60;69.20
15359;DHT22;7779;49.596;11.070;2023-06-22T06:03:46;25.80;69.10
15359;DHT22;7779;49.596;11.070;2023-06-22T06:06:12;26.00;68.90
15359;DHT22;7779;49.596;11.070;2023-06-22T06:08:38;26.10;68.60
15359;DHT22;7779;49.596;11.070;2023-06-22T06:11:04;26.30;68.30
15359;DHT22;7779;49.596;11.070;2023-06-22T06:13:30;26.40;68.00
15359;DHT22;7779;49.596;11.070;2023-06-22T06:15:56;26.60;67.60
15359;DHT22;7779;49.596;11.070;2023-06-22T06:18:22;26.70;67.20
15359;DHT22;7779;49.596;11.070;2023-06-22T06:20:49;26.90;66.80
15359;DHT22;7779;49.596;11.070;2023-06-22T06:23:14;27.10;66.30
15359;DHT22;7779;49.596;11.070;2023-06-22T06:25:40;27.30;65.90
15359;DHT22;7779;49.596;11.070;2023-06-22T06:28:06;27.40;65.60
15359;DHT22;7779;49.596;11.070;2023-06-22T06:30:31;27.60;65.20
15359;DHT22;7779;49.596;11.070;2023-06-22T06:32:57;27.80;64.80
15359;DHT22;7779;49.596;11.070;2023-06-22T06:35:23;27.90;64.10
15359;DHT22;7779;49.596;11.070;2023-06-22T06:37:50;28.10;63.70
15359;DHT22;7779;49.596;11.070;2023-06-22T06:40:17;28.20;63.00
15359;DHT22;7779;49.596;11.070;2023-06-22T06:42:48;28.40;62.60
15359;DHT22;7779;49.596;11.070;2023-06-22T06:45:20;28.50;62.30
15359;DHT22;7779;49.596;11.070;2023-06-22T06:47:51;28.60;61.90
15359;DHT22;7779;49.596;11.070;2023-06-22T06:50:17;28.70;61.60
15359;DHT22;7779;49.596;11.070;2023-06-22T06:52:44;28.80;61.30
15359;DHT22;7779;49.596;11.070;2023-06-22T06:55:10;28.90;61.00
15359;DHT22;7779;49.596;11.070;2023-06-22T06:57:40;29.00;60.80
15359;DHT22;7779;49.596;11.070;2023-06-22T07:00:11;29.10;60.30
15359;DHT22;7779;49.596;11.070;2023-06-22T07:02:43;29.20;60.00
15359;DHT22;7779;49.596;11.070;2023-06-22T07:05:10;29.40;59.80
15359;DHT22;7779;49.596;11.070;2023-06-22T07:07:37;29.50;59.90
15359;DHT22;7779;49.596;11.070;2023-06-22T07:10:05;29.60;59.60
15359;DHT22;7779;49.596;11.070;2023-06-22T07:12:31;29.60;59.20
15359;DHT22;7779;49.596;11.070;2023-06-22T07:15:10;29.70;58.90
15359;DHT22;7779;49.596;11.070;2023-06-22T07:17:37;29.70;57.50
15359;DHT22;7779;49.596;11.070;2023-06-22T07:20:03;29.80;58.50
15359;DHT22;7779;49.596;11.070;2023-06-22T07:22:38;29.80;57.20
15359;DHT22;7779;49.596;11.070;2023-06-22T07:25:08;29.90;58.30
15359;DHT22;7779;49.596;11.070;2023-06-22T07:27:39;30.00;58.20
15359;DHT22;7779;49.596;11.070;2023-06-22T07:30:10;30.00;57.80
15359;DHT22;7779;49.596;11.070;2023-06-22T07:32:37;30.10;57.70
15359;DHT22;7779;49.596;11.070;2023-06-22T07:35:02;30.10;57.30
15359;DHT22;7779;49.596;11.070;2023-06-22T07:37:30;30.10;57.10
15359;DHT22;7779;49.596;11.070;2023-06-22T07:39:56;30.10;57.00
15359;DHT22;7779;49.596;11.070;2023-06-22T07:42:27;30.20;56.90
15359;DHT22;7779;49.596;11.070;2023-06-22T07:44:54;30.20;56.40
15359;DHT22;7779;49.596;11.070;2023-06-22T07:47:20;30.20;56.40
15359;DHT22;7779;49.596;11.070;2023-06-22T07:49:50;30.30;56.20
15359;DHT22;7779;49.596;11.070;2023-06-22T07:52:16;30.40;56.00
15359;DHT22;7779;49.596;11.070;2023-06-22T07:54:41;30.40;55.80
15359;DHT22;7779;49.596;11.070;2023-06-22T07:57:07;30.40;55.60
15359;DHT22;7779;49.596;11.070;2023-06-22T07:59:33;30.50;55.50
15359;DHT22;7779;49.596;11.070;2023-06-22T08:01:59;30.60;55.30
15359;DHT22;7779;49.596;11.070;2023-06-22T08:04:24;30.60;55.20
15359;DHT22;7779;49.596;11.070;2023-06-22T08:06:52;30.70;55.10
15359;DHT22;7779;49.596;11.070;2023-06-22T08:09:19;30.80;55.00
15359;DHT22;7779;49.596;11.070;2023-06-22T08:11:45;30.90;54.80
15359;DHT22;7779;49.596;11.070;2023-06-22T08:14:10;31.00;54.50
15359;DHT22;7779;49.596;11.070;2023-06-22T08:16:36;31.10;54.30
15359;DHT22;7779;49.596;11.070;2023-06-22T08:19:02;31.20;54.10
15359;DHT22;7779;49.596;11.070;2023-06-22T08:21:27;31.30;52.80
15359;DHT22;7779;49.596;11.070;2023-06-22T08:23:53;31.40;53.70
15359;DHT22;7779;49.596;11.070;2023-06-22T08:26:19;31.50;53.50
15359;DHT22;7779;49.596;11.070;2023-06-22T08:28:45;31.60;53.00
15359;DHT22;7779;49.596;11.070;2023-06-22T08:31:11;31.70;53.30
15359;DHT22;7779;49.596;11.070;2023-06-22T08:33:37;31.70;52.50
15359;DHT22;7779;49.596;11.070;2023-06-22T08:36:03;31.80;52.20
15359;DHT22;7779;49.596;11.070;2023-06-22T08:38:31;31.80;52.00
15359;DHT22;7779;49.596;11.070;2023-06-22T08:40:57;31.80;51.70
15359;DHT22;7779;49.596;11.070;2023-06-22T08:43:23;31.90;51.40
15359;DHT22;7779;49.596;11.070;2023-06-22T08:45:48;31.90;51.20
15359;DHT22;7779;49.596;11.070;2023-06-22T08:48:14;31.90;51.20
15359;DHT22;7779;49.596;11.070;2023-06-22T08:50:40;31.90;51.20
15359;DHT22;7779;49.596;11.070;2023-06-22T08:53:06;31.90;51.10
15359;DHT22;7779;49.596;11.070;2023-06-22T08:55:31;31.90;51.00
15359;DHT22;7779;49.596;11.070;2023-06-22T08:57:57;32.00;50.90
15359;DHT22;7779;49.596;11.070;2023-06-22T09:00:23;32.00;50.70
15359;DHT22;7779;49.596;11.070;2023-06-22T09:02:49;32.00;50.60
15359;DHT22;7779;49.596;11.070;2023-06-22T09:05:15;32.00;50.60
15359;DHT22;7779;49.596;11.070;2023-06-22T09:07:41;32.10;50.50
15359;DHT22;7779;49.596;11.070;2023-06-22T09:10:07;32.10;50.40
15359;DHT22;7779;49.596;11.070;2023-06-22T09:12:34;32.10;50.40
15359;DHT22;7779;49.596;11.070;2023-06-22T09:15:00;32.20;50.30
15359;DHT22;7779;49.596;11.070;2023-06-22T09:17:27;32.20;50.00
15359;DHT22;7779;49.596;11.070;2023-06-22T09:19:53;32.30;49.90
15359;DHT22;7779;49.596;11.070;2023-06-22T09:22:19;32.30;49.80
15359;DHT22;7779;49.596;11.070;2023-06-22T09:24:44;32.30;49.80
15359;DHT22;7779;49.596;11.070;2023-06-22T09:27:10;32.40;49.80
15359;DHT22;7779;49.596;11.070;2023-06-22T09:29:36;32.40;49.70
15359;DHT22;7779;49.596;11.070;2023-06-22T09:32:01;32.60;48.20
15359;DHT22;7779;49.596;11.070;2023-06-22T09:34:27;32.60;49.50
15359;DHT22;7779;49.596;11.070;2023-06-22T09:36:53;32.70;49.40
15359;DHT22;7779;49.596;11.070;2023-06-22T09:39:20;32.70;49.20
15359;DHT22;7779;49.596;11.070;2023-06-22T09:41:46;32.80;49.20
15359;DHT22;7779;49.596;11.070;2023-06-22T09:44:11;32.90;49.20
15359;DHT22;7779;49.596;11.070;2023-06-22T09:46:37;33.00;49.20
15359;DHT22;7779;49.596;11.070;2023-06-22T09:49:03;33.10;49.10
15359;DHT22;7779;49.596;11.070;2023-06-22T09:51:29;33.20;48.80
15359;DHT22;7779;49.596;11.070;2023-06-22T09:53:55;33.30;48.50
15359;DHT22;7779;49.596;11.070;2023-06-22T09:56:20;33.40;48.30
15359;DHT22;7779;49.596;11.070;2023-06-22T09:58:47;33.40;48.00
15359;DHT22;7779;49.596;11.070;2023-06-22T10:01:13;33.40;47.30
15359;DHT22;7779;49.596;11.070;2023-06-22T10:03:42;33.50;47.50
15359;DHT22;7779;49.596;11.070;2023-06-22T10:06:08;33.50;47.40
15359;DHT22;7779;49.596;11.070;2023-06-22T10:08:35;33.50;47.20
15359;DHT22;7779;49.596;11.070;2023-06-22T10:11:02;33.50;46.90
15359;DHT22;7779;49.596;11.070;2023-06-22T10:13:29;33.50;46.80
15359;DHT22;7779;49.596;11.070;2023-06-22T10:15:54;33.50;46.70
15359;DHT22;7779;49.596;11.070;2023-06-22T10:18:21;33.40;46.50
15359;DHT22;7779;49.596;11.070;2023-06-22T10:20:50;33.40;46.50
15359;DHT22;7779;49.596;11.070;2023-06-22T10:23:18;33.40;46.20
15359;DHT22;7779;49.596;11.070;2023-06-22T10:25:45;33.40;46.40
15359;DHT22;7779;49.596;11.070;2023-06-22T10:28:11;33.40;46.40
15359;DHT22;7779;49.596;11.070;2023-06-22T10:30:39;33.40;46.30
15359;DHT22;7779;49.596;11.070;2023-06-22T10:35:35;33.50;45.70
15359;DHT22;7779;49.596;11.070;2023-06-22T10:38:05;33.50;46.20
15359;DHT22;7779;49.596;11.070;2023-06-22T10:40:31;33.50;45.60
15359;DHT22;7779;49.596;11.070;2023-06-22T10:42:57;33.60;46.10
15359;DHT22;7779;49.596;11.070;2023-06-22T10:45:23;33.70;46.10
15359;DHT22;7779;49.596;11.070;2023-06-22T10:47:49;33.60;45.20
15359;DHT22;7779;49.596;11.070;2023-06-22T10:50:14;33.70;45.00
15359;DHT22;7779;49.596;11.070;2023-06-22T10:52:40;33.70;44.90
15359;DHT22;7779;49.596;11.070;2023-06-22T10:55:09;33.70;45.40
15359;DHT22;7779;49.596;11.070;2023-06-22T10:57:35;33.80;45.40
15359;DHT22;7779;49.596;11.070;2023-06-22T11:00:03;33.80;45.40
15359;DHT22;7779;49.596;11.070;2023-06-22T11:02:32;33.80;43.90
15359;DHT22;7779;49.596;11.070;2023-06-22T11:04:57;33.90;45.10
15359;DHT22;7779;49.596;11.070;2023-06-22T11:07:26;33.90;45.00
15359;DHT22;7779;49.596;11.070;2023-06-22T11:09:55;33.90;44.80
15359;DHT22;7779;49.596;11.070;2023-06-22T11:12:21;34.00;44.90
15359;DHT22;7779;49.596;11.070;2023-06-22T11:14:46;34.00;44.80
15359;DHT22;7779;49.596;11.070;2023-06-22T11:17:12;34.00;44.60
15359;DHT22;7779;49.596;11.070;2023-06-22T11:19:38;34.00;44.30
15359;DHT22;7779;49.596;11.070;2023-06-22T11:22:04;34.00;42.90
15359;DHT22;7779;49.596;11.070;2023-06-22T11:24:30;34.00;44.00
15359;DHT22;7779;49.596;11.070;2023-06-22T11:26:56;34.00;43.80
15359;DHT22;7779;49.596;11.070;2023-06-22T11:29:21;33.90;43.80
15359;DHT22;7779;49.596;11.070;2023-06-22T11:31:47;33.90;43.20
15359;DHT22;7779;49.596;11.070;2023-06-22T11:34:13;33.90;43.90
15359;DHT22;7779;49.596;11.070;2023-06-22T11:36:38;33.90;44.00
15359;DHT22;7779;49.596;11.070;2023-06-22T11:39:04;34.00;43.90
15359;DHT22;7779;49.596;11.070;2023-06-22T11:41:30;34.00;43.80
15359;DHT22;7779;49.596;11.070;2023-06-22T11:43:56;34.00;43.80
15359;DHT22;7779;49.596;11.070;2023-06-22T11:46:21;34.10;43.80
15359;DHT22;7779;49.596;11.070;2023-06-22T11:48:47;34.10;43.70
15359;DHT22;7779;49.596;11.070;2023-06-22T11:51:13;34.20;43.60
15359;DHT22;7779;49.596;11.070;2023-06-22T11:53:39;34.30;43.50
15359;DHT22;7779;49.596;11.070;2023-06-22T11:56:04;34.30;43.30
15359;DHT22;7779;49.596;11.070;2023-06-22T11:58:30;34.30;43.30
15359;DHT22;7779;49.596;11.070;2023-06-22T12:00:56;34.30;43.10
15359;DHT22;7779;49.596;11.070;2023-06-22T12:03:21;34.50;43.10
15359;DHT22;7779;49.596;11.070;2023-06-22T12:05:49;34.50;42.80
15359;DHT22;7779;49.596;11.070;2023-06-22T12:08:16;34.60;42.70
15359;DHT22;7779;49.596;11.070;2023-06-22T12:10:42;34.70;42.60
15359;DHT22;7779;49.596;11.070;2023-06-22T12:13:08;34.70;42.50
15359;DHT22;7779;49.596;11.070;2023-06-22T12:15:34;34.80;42.30
15359;DHT22;7779;49.596;11.070;2023-06-22T12:17:59;34.80;42.00
15359;DHT22;7779;49.596;11.070;2023-06-22T12:20:26;34.80;41.80
15359;DHT22;7779;49.596;11.070;2023-06-22T12:22:52;34.90;41.70
15359;DHT22;7779;49.596;11.070;2023-06-22T12:25:19;35.00;41.60
15359;DHT22;7779;49.596;11.070;2023-06-22T12:27:45;34.90;41.40
15359;DHT22;7779;49.596;11.070;2023-06-22T12:30:11;35.00;41.20
15359;DHT22;7779;49.596;11.070;2023-06-22T12:32:36;35.00;41.10
15359;DHT22;7779;49.596;11.070;2023-06-22T12:35:02;35.00;41.10
15359;DHT22;7779;49.596;11.070;2023-06-22T12:37:28;35.10;41.10
15359;DHT22;7779;49.596;11.070;2023-06-22T12:39:54;35.00;41.10
15359;DHT22;7779;49.596;11.070;2023-06-22T12:42:20;35.10;41.10
15359;DHT22;7779;49.596;11.070;2023-06-22T12:44:46;35.20;41.20
15359;DHT22;7779;49.596;11.070;2023-06-22T12:47:12;35.30;41.20
15359;DHT22;7779;49.596;11.070;2023-06-22T12:49:38;35.30;41.00
15359;DHT22;7779;49.596;11.070;2023-06-22T12:52:09;35.40;39.90
15359;DHT22;7779;49.596;11.070;2023-06-22T12:54:36;35.50;40.60
15359;DHT22;7779;49.596;11.070;2023-06-22T12:57:02;35.60;40.80
15359;DHT22;7779;49.596;11.070;2023-06-22T12:59:27;35.60;40.60
15359;DHT22;7779;49.596;11.070;2023-06-22T13:01:53;35.70;40.40
15359;DHT22;7779;49.596;11.070;2023-06-22T13:04:20;35.80;40.40
15359;DHT22;7779;49.596;11.070;2023-06-22T13:06:46;35.90;40.20
15359;DHT22;7779;49.596;11.070;2023-06-22T13:09:14;36.00;40.10
15359;DHT22;7779;49.596;11.070;2023-06-22T13:11:41;36.10;39.90
15359;DHT22;7779;49.596;11.070;2023-06-22T13:14:08;36.10;39.70
15359;DHT22;7779;49.596;11.070;2023-06-22T13:16:33;36.20;39.70
15359;DHT22;7779;49.596;11.070;2023-06-22T13:18:59;36.20;39.60
15359;DHT22;7779;49.596;11.070;2023-06-22T13:21:25;36.30;39.50
15359;DHT22;7779;49.596;11.070;2023-06-22T13:23:50;36.40;39.40
15359;DHT22;7779;49.596;11.070;2023-06-22T13:26:16;36.40;39.30
15359;DHT22;7779;49.596;11.070;2023-06-22T13:28:42;36.50;39.20
15359;DHT22;7779;49.596;11.070;2023-06-22T13:31:07;36.50;39.00
15359;DHT22;7779;49.596;11.070;2023-06-22T13:33:33;36.60;39.00
15359;DHT22;7779;49.596;11.070;2023-06-22T13:35:59;36.60;38.90
15359;DHT22;7779;49.596;11.070;2023-06-22T13:38:25;36.70;38.70
15359;DHT22;7779;49.596;11.070;2023-06-22T13:40:50;36.70;38.50
15359;DHT22;7779;49.596;11.070;2023-06-22T13:43:16;36.80;38.60
15359;DHT22;7779;49.596;11.070;2023-06-22T13:45:43;36.80;38.40
15359;DHT22;7779;49.596;11.070;2023-06-22T13:48:09;36.80;38.20
15359;DHT22;7779;49.596;11.070;2023-06-22T13:50:35;36.80;38.10
15359;DHT22;7779;49.596;11.070;2023-06-22T13:53:01;36.80;37.90
15359;DHT22;7779;49.596;11.070;2023-06-22T13:55:26;36.80;37.90
15359;DHT22;7779;49.596;11.070;2023-06-22T13:57:52;36.80;37.90
15359;DHT22;7779;49.596;11.070;2023-06-22T14:00:19;36.90;37.90
15359;DHT22;7779;49.596;11.070;2023-06-22T14:02:45;36.90;37.70
15359;DHT22;7779;49.596;11.070;2023-06-22T14:05:11;36.90;38.40
15359;DHT22;7779;49.596;11.070;2023-06-22T14:07:37;36.80;37.70
15359;DHT22;7779;49.596;11.070;2023-06-22T14:10:03;36.90;37.70
15359;DHT22;7779;49.596;11.070;2023-06-22T14:12:29;36.90;37.60
15359;DHT22;7779;49.596;11.070;2023-06-22T14:14:55;37.00;37.70
15359;DHT22;7779;49.596;11.070;2023-06-22T14:17:21;37.00;37.60
15359;DHT22;7779;49.596;11.070;2023-06-22T14:19:51;37.00;37.40
15359;DHT22;7779;49.596;11.070;2023-06-22T14:22:21;37.10;37.20
15359;DHT22;7779;49.596;11.070;2023-06-22T14:24:48;37.10;37.00
15359;DHT22;7779;49.596;11.070;2023-06-22T14:27:14;37.10;36.80
15359;DHT22;7779;49.596;11.070;2023-06-22T14:29:40;37.10;36.70
15359;DHT22;7779;49.596;11.070;2023-06-22T14:32:07;37.10;36.50
15359;DHT22;7779;49.596;11.070;2023-06-22T14:34:33;37.10;36.50
15359;DHT22;7779;49.596;11.070;2023-06-22T14:37:02;37.10;36.40
15359;DHT22;7779;49.596;11.070;2023-06-22T14:39:28;37.10;36.40
15359;DHT22;7779;49.596;11.070;2023-06-22T14:41:54;37.10;36.40
15359;DHT22;7779;49.596;11.070;2023-06-22T14:44:20;37.00;36.30
15359;DHT22;7779;49.596;11.070;2023-06-22T14:46:45;37.00;36.20
15359;DHT22;7779;49.596;11.070;2023-06-22T14:49:11;37.00;36.20
15359;DHT22;7779;49.596;11.070;2023-06-22T14:51:37;37.00;35.90
15359;DHT22;7779;49.596;11.070;2023-06-22T14:54:03;37.00;36.20
15359;DHT22;7779;49.596;11.070;2023-06-22T14:56:28;37.00;36.10
15359;DHT22;7779;49.596;11.070;2023-06-22T14:58:55;36.90;36.70
15359;DHT22;7779;49.596;11.070;2023-06-22T15:01:21;36.90;36.20
15359;DHT22;7779;49.596;11.070;2023-06-22T15:03:47;36.80;36.10
15359;DHT22;7779;49.596;11.070;2023-06-22T15:06:12;36.80;36.10
15359;DHT22;7779;49.596;11.070;2023-06-22T15:08:39;36.70;36.00
15359;DHT22;7779;49.596;11.070;2023-06-22T15:11:05;36.70;36.00
15359;DHT22;7779;49.596;11.070;2023-06-22T15:13:32;36.70;36.00
15359;DHT22;7779;49.596;11.070;2023-06-22T15:15:59;36.70;36.10
15359;DHT22;7779;49.596;11.070;2023-06-22T15:18:26;36.60;36.10
15359;DHT22;7779;49.596;11.070;2023-06-22T15:20:52;36.60;36.10
15359;DHT22;7779;49.596;11.070;2023-06-22T15:23:18;36.50;36.00
15359;DHT22;7779;49.596;11.070;2023-06-22T15:25:44;36.50;36.10
15359;DHT22;7779;49.596;11.070;2023-06-22T15:28:11;36.50;36.10
15359;DHT22;7779;49.596;11.070;2023-06-22T15:30:37;36.40;36.10
15359;DHT22;7779;49.596;11.070;2023-06-22T15:33:03;36.40;36.10
15359;DHT22;7779;49.596;11.070;2023-06-22T15:35:29;36.40;36.20
15359;DHT22;7779;49.596;11.070;2023-06-22T15:37:54;36.30;36.20